Time;durP1;ratioP1;P1;durP2;ratioP2;P2;SDS_P1;SDS_P2;PMS_P1;PMS_P2;Temp;Humidity;BMP_temperature;BMP_pressure;BME280_temperature;BME280_humidity;BME280_pressure;Samples;Min_cycle;Max_cycle;Signal;HPM_P1;HPM_P2
2021/03/25 00:01:20;;;;;;;56.00;33.07;;;9.10;76.80;;;;;;5033116;28;20028;-79
2021/03/25 00:03:48;;;;;;;53.13;32.50;;;9.20;77.60;;;;;;5031430;28;20343;-79
2021/03/25 00:06:14;;;;;;;56.20;34.20;;;9.20;76.90;;;;;;5015116;28;20363;-80
2021/03/25 00:08:39;;;;;;;53.33;32.40;;;9.20;77.00;;;;;;5031565;28;20470;-80
2021/03/25 00:11:05;;;;;;;57.87;34.87;;;9.20;77.10;;;;;;5031416;28;20036;-81
2021/03/25 00:13:31;;;;;;;55.40;34.00;;;9.20;77.20;;;;;;5015025;28;20037;-81
2021/03/25 00:15:57;;;;;;;55.00;32.40;;;9.20;77.10;;;;;;5014951;28;20025;-81
2021/03/25 00:18:23;;;;;;;59.53;35.60;;;9.20;77.20;;;;;;5015285;28;20470;-79
2021/03/25 00:20:49;;;;;;;51.73;33.13;;;9.20;77.40;;;;;;5015096;28;20033;-80
2021/03/25 00:23:16;;;;;;;53.10;34.27;;;9.30;77.60;;;;;;5014917;28;20018;-80
2021/03/25 00:25:43;;;;;;;56.97;33.33;;;9.30;77.70;;;;;;5014930;28;20120;-79
2021/03/25 00:28:11;;;;;;;56.23;34.07;;;9.20;77.80;;;;;;5014868;28;20039;-80
2021/03/25 00:30:37;;;;;;;56.00;34.00;;;9.30;78.20;;;;;;5014974;28;20475;-80
2021/03/25 00:33:05;;;;;;;55.83;34.07;;;9.30;78.10;;;;;;5032702;28;20088;-80
2021/03/25 00:35:32;;;;;;;52.90;32.77;;;9.30;78.10;;;;;;5014618;28;20113;-80
2021/03/25 00:37:58;;;;;;;55.57;34.60;;;9.20;78.10;;;;;;5014846;28;20490;-80
2021/03/25 00:40:24;;;;;;;58.23;33.10;;;9.20;78.20;;;;;;5032710;28;20129;-79
2021/03/25 00:42:50;;;;;;;62.40;34.53;;;9.20;78.30;;;;;;5014924;28;20084;-80
2021/03/25 00:45:34;;;;;;;58.03;33.80;;;9.30;78.40;;;;;;5032772;28;20025;-79
2021/03/25 00:47:59;;;;;;;41.15;25.02;;;9.20;78.40;;;;;;5032726;28;20037;-79
2021/03/25 00:50:27;;;;;;;52.80;32.33;;;9.20;79.00;;;;;;5031469;28;20490;-80
2021/03/25 00:52:53;;;;;;;54.37;33.60;;;9.20;78.20;;;;;;5032740;28;20117;-79
2021/03/25 00:55:20;;;;;;;57.47;31.67;;;9.20;78.20;;;;;;5030848;28;20494;-80
2021/03/25 00:57:45;;;;;;;52.33;30.33;;;9.20;78.30;;;;;;5014392;28;20100;-79
2021/03/25 01:00:14;;;;;;;54.27;30.80;;;9.20;78.60;;;;;;5014777;28;20489;-79
2021/03/25 01:02:40;;;;;;;51.93;32.70;;;9.10;78.80;;;;;;5014489;28;20091;-78
2021/03/25 01:05:06;;;;;;;57.33;32.23;;;9.10;78.90;;;;;;5014480;28;20029;-80
2021/03/25 01:07:32;;;;;;;54.83;34.10;;;9.10;79.10;;;;;;5014301;28;20038;-80
2021/03/25 01:09:58;;;;;;;58.93;33.00;;;9.00;79.20;;;;;;5014733;28;20034;-80
2021/03/25 01:12:25;;;;;;;59.50;34.43;;;9.00;79.20;;;;;;5032130;28;20053;-78
2021/03/25 01:14:50;;;;;;;61.47;35.07;;;9.00;79.30;;;;;;5032895;28;20436;-79
2021/03/25 01:17:16;;;;;;;58.77;34.97;;;9.00;79.20;;;;;;5035857;28;20022;-79
2021/03/25 01:19:41;;;;;;;62.13;34.83;;;8.90;79.10;;;;;;5018177;28;20060;-79
2021/03/25 01:22:07;;;;;;;58.27;33.97;;;8.90;79.10;;;;;;5035132;28;20029;-79
2021/03/25 01:24:33;;;;;;;63.83;34.93;;;8.80;79.10;;;;;;5017734;28;20442;-79
2021/03/25 01:26:58;;;;;;;59.07;35.47;;;8.90;79.30;;;;;;5034482;28;20045;-79
2021/03/25 01:29:26;;;;;;;53.37;32.80;;;8.90;79.30;;;;;;5036031;28;20032;-80
2021/03/25 01:31:51;;;;;;;60.47;33.60;;;8.90;79.30;;;;;;5018165;28;20036;-79
2021/03/25 01:34:20;;;;;;;52.73;32.70;;;8.90;79.40;;;;;;5017647;28;20029;-80
2021/03/25 01:36:49;;;;;;;62.00;33.77;;;8.90;79.50;;;;;;5035603;28;20034;-79
2021/03/25 01:39:14;;;;;;;57.27;31.67;;;8.90;79.60;;;;;;5017522;28;20030;-79
2021/03/25 01:41:42;;;;;;;52.23;31.87;;;8.80;79.70;;;;;;5034566;28;20052;-79
2021/03/25 01:44:29;;;;;;;48.27;31.93;;;8.80;80.00;;;;;;5034311;28;20033;-78
2021/03/25 01:46:55;;;;;;;56.73;33.57;;;8.80;80.20;;;;;;5017425;28;20075;-79
2021/03/25 01:49:20;;;;;;;59.13;34.60;;;8.80;80.40;;;;;;5017585;28;20053;-78
2021/03/25 01:52:16;;;;;;;54.63;33.10;;;8.80;80.50;;;;;;5017329;28;20112;-80
2021/03/25 01:55:19;;;;;;;54.53;33.13;;;8.80;80.60;;;;;;5017531;28;20029;-79
2021/03/25 01:58:14;;;;;;;59.50;34.10;;;8.80;80.60;;;;;;5035530;28;20410;-79
2021/03/25 02:01:04;;;;;;;55.17;32.83;;;8.90;80.60;;;;;;5035179;28;20032;-79
2021/03/25 02:03:41;;;;;;;56.33;32.80;;;8.90;80.60;;;;;;5017161;28;20478;-79
2021/03/25 02:06:13;;;;;;;56.90;34.37;;;8.80;80.60;;;;;;5017196;28;20030;-79
2021/03/25 02:08:47;;;;;;;54.00;31.73;;;8.80;80.70;;;;;;5017541;28;20087;-79
2021/03/25 02:11:31;;;;;;;53.63;32.47;;;8.80;80.80;;;;;;5017312;28;20422;-79
2021/03/25 02:14:15;;;;;;;59.90;32.93;;;8.80;81.00;;;;;;5033645;28;20409;-80
2021/03/25 02:17:04;;;;;;;57.75;35.35;;;8.90;81.70;;;;;;5014025;28;20104;-79
2021/03/25 02:20:06;;;;;;;61.40;34.90;;;9.00;82.00;;;;;;5009595;28;20475;-79
2021/03/25 02:22:58;;;;;;;60.83;35.37;;;9.00;81.50;;;;;;5017093;28;20474;-80
2021/03/25 02:25:48;;;;;;;59.80;35.43;;;8.90;81.10;;;;;;5030674;28;20032;-80
2021/03/25 02:28:39;;;;;;;63.70;36.03;;;8.90;81.00;;;;;;5014499;28;20141;-78
2021/03/25 02:31:17;;;;;;;65.87;39.73;;;8.90;81.00;;;;;;5031350;28;20057;-79
2021/03/25 02:33:48;;;;;;;65.77;38.30;;;8.90;80.90;;;;;;5032398;28;20029;-80
2021/03/25 02:36:19;;;;;;;67.80;38.97;;;8.90;81.00;;;;;;5033146;28;20492;-79
2021/03/25 02:39:06;;;;;;;62.70;38.10;;;9.00;80.90;;;;;;5033445;28;20025;-79
2021/03/25 02:41:43;;;;;;;69.53;40.43;;;9.00;81.00;;;;;;5032814;28;20056;-79
2021/03/25 02:44:17;;;;;;;69.23;41.10;;;9.00;81.00;;;;;;5034488;28;20021;-79
2021/03/25 02:46:53;;;;;;;71.25;42.10;;;9.00;80.80;;;;;;5033100;28;20474;-79
2021/03/25 02:49:23;;;;;;;61.83;38.37;;;9.10;80.80;;;;;;5033792;28;20021;-79
2021/03/25 02:51:56;;;;;;;65.90;39.83;;;9.10;80.70;;;;;;5032643;28;20489;-79
2021/03/25 02:54:22;;;;;;;64.63;40.13;;;9.10;80.60;;;;;;5034126;28;20052;-79
2021/03/25 02:56:56;;;;;;;62.67;39.10;;;9.10;80.70;;;;;;5016422;28;20084;-80
2021/03/25 02:59:33;;;;;;;67.68;39.10;;;9.20;80.70;;;;;;5033946;28;20053;-80
2021/03/25 03:02:08;;;;;;;64.77;39.67;;;9.10;80.70;;;;;;5032063;28;20112;-81
2021/03/25 03:04:37;;;;;;;62.43;38.13;;;9.10;80.70;;;;;;5033870;28;20021;-81
2021/03/25 03:07:15;;;;;;;64.37;40.40;;;9.10;80.60;;;;;;5032186;28;20059;-81
2021/03/25 03:09:46;;;;;;;62.37;36.13;;;9.20;80.70;;;;;;5033939;28;20071;-81
2021/03/25 03:12:23;;;;;;;54.93;34.43;;;9.10;80.80;;;;;;5032249;28;20021;-81
2021/03/25 03:14:52;;;;;;;60.80;36.40;;;9.10;80.80;;;;;;5032276;28;20018;-80
2021/03/25 03:17:36;;;;;;;59.90;37.60;;;9.10;80.80;;;;;;5033534;28;20037;-80
2021/03/25 03:20:23;;;;;;;61.55;36.92;;;9.10;80.80;;;;;;5033764;28;20067;-80
2021/03/25 03:22:49;;;;;;;58.30;34.73;;;9.00;81.00;;;;;;5013308;28;20021;-81
2021/03/25 03:25:20;;;;;;;57.97;37.00;;;9.00;81.00;;;;;;5031291;28;20171;-80
2021/03/25 03:27:56;;;;;;;59.57;36.80;;;9.00;81.10;;;;;;5033222;28;20497;-79
2021/03/25 03:30:39;;;;;;;66.00;41.57;;;9.10;81.30;;;;;;5015397;28;20164;-79
2021/03/25 03:33:23;;;;;;;60.97;38.77;;;9.00;81.20;;;;;;5012698;28;20389;-79
2021/03/25 03:35:56;;;;;;;63.27;38.10;;;9.10;81.10;;;;;;5015394;28;20033;-79
2021/03/25 03:38:30;;;;;;;70.43;40.50;;;9.10;81.10;;;;;;5015095;28;20436;-78
2021/03/25 03:40:57;;;;;;;64.57;39.83;;;9.10;81.00;;;;;;5015791;28;20067;-78
2021/03/25 03:43:23;;;;;;;65.13;40.80;;;9.10;81.00;;;;;;5032962;28;20021;-80
2021/03/25 03:46:12;;;;;;;69.17;40.03;;;9.20;81.00;;;;;;5033495;28;20028;-79
2021/03/25 03:49:08;;;;;;;69.10;41.70;;;9.10;81.00;;;;;;5015544;28;20030;-80
2021/03/25 03:51:40;;;;;;;68.90;42.73;;;9.20;80.90;;;;;;5007225;28;20132;-80
2021/03/25 03:54:06;;;;;;;68.63;41.13;;;9.20;80.90;;;;;;5032550;28;20025;-80
2021/03/25 03:56:57;;;;;;;67.17;42.33;;;9.20;80.80;;;;;;5032859;28;20033;-81
2021/03/25 03:59:48;;;;;;;68.73;41.87;;;9.20;80.90;;;;;;5015493;28;20082;-79
2021/03/25 04:02:51;;;;;;;74.30;41.57;;;9.20;80.90;;;;;;5031485;28;20508;-79
2021/03/25 04:05:25;;;;;;;67.60;41.70;;;9.20;81.00;;;;;;5001729;28;20034;-79
2021/03/25 04:08:17;;;;;;;72.90;43.10;;;9.30;80.90;;;;;;5014955;28;20056;-79
2021/03/25 04:10:52;;;;;;;70.00;39.77;;;9.30;80.80;;;;;;5031413;28;20025;-81
2021/03/25 04:13:31;;;;;;;71.90;42.90;;;9.30;80.90;;;;;;5014850;28;20025;-79
2021/03/25 04:15:57;;;;;;;70.77;42.33;;;9.20;80.90;;;;;;5015463;28;20030;-80
2021/03/25 04:18:52;;;;;;;74.73;43.27;;;9.30;81.00;;;;;;5031529;28;20140;-79
2021/03/25 04:21:30;;;;;;;72.97;43.77;;;9.30;81.20;;;;;;5031602;28;20076;-79
2021/03/25 04:24:02;;;;;;;68.63;41.77;;;9.30;81.20;;;;;;5014773;28;20095;-80
2021/03/25 04:26:43;;;;;;;72.40;42.40;;;9.30;81.30;;;;;;5032483;28;20030;-80
2021/03/25 04:29:29;;;;;;;77.17;43.83;;;9.20;81.40;;;;;;5032781;28;20053;-79
2021/03/25 04:31:57;;;;;;;72.00;42.00;;;9.30;81.50;;;;;;5014642;28;20451;-81
2021/03/25 04:34:23;;;;;;;72.13;44.80;;;9.30;81.50;;;;;;5014689;28;20041;-79
2021/03/25 04:36:49;;;;;;;69.60;43.30;;;9.20;81.60;;;;;;5014539;28;20478;-80
2021/03/25 04:39:17;;;;;;;75.90;43.60;;;9.20;81.70;;;;;;5015031;28;20068;-80
2021/03/25 04:41:45;;;;;;;77.17;45.40;;;9.20;81.70;;;;;;5031276;28;20032;-79
2021/03/25 04:44:26;;;;;;;74.13;43.97;;;9.20;81.70;;;;;;5031225;28;20470;-81
2021/03/25 04:46:51;;;;;;;67.90;42.77;;;9.20;81.60;;;;;;5032803;28;20033;-79
2021/03/25 04:49:47;;;;;;;71.17;43.23;;;9.20;81.60;;;;;;5015983;28;20040;-79
2021/03/25 04:52:22;;;;;;;71.33;44.13;;;9.20;81.60;;;;;;5034046;28;20052;-80
2021/03/25 04:54:48;;;;;;;72.13;43.83;;;9.20;81.50;;;;;;5036299;28;20018;-79
2021/03/25 04:57:35;;;;;;;73.30;43.80;;;9.30;81.50;;;;;;5036013;28;20056;-79
2021/03/25 05:00:26;;;;;;;76.60;43.73;;;9.30;81.50;;;;;;5034889;28;20441;-79
2021/03/25 05:02:53;;;;;;;67.67;42.73;;;9.30;81.40;;;;;;4989864;28;20045;-79
2021/03/25 05:05:25;;;;;;;71.53;43.50;;;9.30;81.40;;;;;;5014863;28;20025;-81
2021/03/25 05:08:02;;;;;;;76.70;45.40;;;9.30;81.40;;;;;;5016622;28;20041;-80
2021/03/25 05:10:44;;;;;;;72.07;44.60;;;9.30;81.40;;;;;;5016318;28;20033;-80
2021/03/25 05:13:43;;;;;;;79.07;46.37;;;9.30;81.40;;;;;;4998983;28;20065;-80
2021/03/25 05:16:21;;;;;;;74.93;45.53;;;9.30;81.30;;;;;;4986653;28;20038;-79
2021/03/25 05:19:02;;;;;;;76.73;44.73;;;9.20;81.20;;;;;;5014713;28;20026;-79
2021/03/25 05:21:43;;;;;;;79.80;46.03;;;9.20;81.20;;;;;;5016258;28;20026;-79
2021/03/25 05:24:34;;;;;;;83.77;47.30;;;9.10;81.20;;;;;;4998393;28;20022;-79
2021/03/25 05:27:06;;;;;;;79.80;45.77;;;9.10;81.50;;;;;;4998555;28;20582;-79
2021/03/25 05:29:33;;;;;;;76.07;46.13;;;8.90;81.60;;;;;;4998174;28;20018;-79
2021/03/25 05:32:00;;;;;;;80.50;45.83;;;8.90;81.70;;;;;;4998363;28;20048;-79
2021/03/25 05:34:27;;;;;;;77.33;46.63;;;8.90;81.80;;;;;;5014639;28;20026;-79
2021/03/25 05:36:56;;;;;;;74.63;45.03;;;8.90;81.90;;;;;;4998234;28;20092;-79
2021/03/25 05:39:23;;;;;;;77.87;45.97;;;8.80;81.90;;;;;;5014684;28;20026;-79
2021/03/25 05:41:48;;;;;;;74.83;44.47;;;8.80;82.10;;;;;;4998219;28;20030;-78
2021/03/25 05:44:49;;;;;;;75.77;43.47;;;8.80;82.00;;;;;;4998350;28;20045;-79
2021/03/25 05:47:32;;;;;;;69.60;43.10;;;8.70;82.10;;;;;;4998118;28;20041;-81
2021/03/25 05:50:19;;;;;;;72.85;43.55;;;8.70;82.10;;;;;;4998450;28;20101;-79
2021/03/25 05:52:57;;;;;;;79.37;45.93;;;8.60;82.10;;;;;;4998219;28;20021;-79
2021/03/25 05:55:57;;;;;;;81.37;46.73;;;8.60;82.10;;;;;;5001506;28;20473;-79
2021/03/25 05:58:39;;;;;;;82.33;45.60;;;8.60;82.30;;;;;;5034072;28;20128;-78
2021/03/25 06:01:29;;;;;;;78.03;45.70;;;8.50;82.40;;;;;;5033265;28;20036;-79
2021/03/25 06:04:29;;;;;;;73.80;43.57;;;8.50;82.50;;;;;;5034717;28;20032;-79
2021/03/25 06:07:01;;;;;;;79.50;45.30;;;8.40;82.60;;;;;;5035161;28;20486;-78
2021/03/25 06:09:35;;;;;;;76.43;46.07;;;8.40;82.70;;;;;;5017373;28;20037;-78
2021/03/25 06:12:29;;;;;;;83.70;47.67;;;8.40;82.70;;;;;;5033638;28;20037;-78
2021/03/25 06:15:42;;;;;;;81.87;45.17;;;8.30;82.90;;;;;;5032367;28;20036;-79
2021/03/25 06:18:29;;;;;;;77.30;46.17;;;8.30;83.00;;;;;;5021660;28;20103;-80
2021/03/25 06:20:58;;;;;;;78.00;46.70;;;8.30;83.20;;;;;;5033625;28;20116;-81
2021/03/25 06:23:35;;;;;;;82.30;47.07;;;8.30;83.40;;;;;;5033529;28;20038;-81
2021/03/25 06:26:26;;;;;;;87.07;47.93;;;8.30;83.60;;;;;;5033594;28;20528;-80
2021/03/25 06:28:55;;;;;;;82.37;46.20;;;8.30;83.70;;;;;;5016662;28;20063;-80
2021/03/25 06:31:59;;;;;;;78.77;47.87;;;8.30;83.90;;;;;;5033549;28;20021;-80
2021/03/25 06:34:43;;;;;;;76.43;45.30;;;8.40;84.10;;;;;;5017377;28;20033;-80
2021/03/25 06:37:27;;;;;;;66.80;37.22;;;8.40;84.20;;;;;;5033762;28;20022;-80
2021/03/25 06:39:55;;;;;;;;;;;8.40;84.30;;;;;;5030916;28;20018;-80
2021/03/25 06:42:35;;;;;;;72.63;39.83;;;8.50;84.40;;;;;;5033995;28;19948;-80
2021/03/25 06:45:10;;;;;;;76.17;44.03;;;8.60;84.40;;;;;;5014530;28;20089;-80
2021/03/25 06:47:50;;;;;;;80.47;47.10;;;8.60;84.40;;;;;;5013460;28;20516;-80
2021/03/25 06:50:39;;;;;;;77.83;45.07;;;8.70;84.50;;;;;;5027091;28;20494;-80
2021/03/25 06:53:25;;;;;;;86.57;47.17;;;8.70;84.80;;;;;;5012713;28;20081;-80
2021/03/25 06:55:59;;;;;;;86.10;49.23;;;8.70;84.50;;;;;;5014506;28;20168;-81
2021/03/25 06:58:31;;;;;;;86.07;48.38;;;8.70;84.30;;;;;;5014747;28;20053;-80
2021/03/25 07:01:05;;;;;;;94.07;46.20;;;8.70;84.30;;;;;;5014200;28;20375;-80
2021/03/25 07:03:32;;;;;;;80.47;48.53;;;8.70;84.30;;;;;;5014155;28;20072;-81
2021/03/25 07:06:00;;;;;;;79.00;46.87;;;8.60;84.40;;;;;;5014206;28;20123;-80
2021/03/25 07:08:32;;;;;;;91.87;47.63;;;8.70;84.40;;;;;;4996560;28;20064;-80
2021/03/25 07:11:04;;;;;;;87.80;48.10;;;8.70;84.80;;;;;;5014305;28;20379;-80
2021/03/25 07:13:43;;;;;;;79.17;47.33;;;8.70;84.50;;;;;;4995376;28;20018;-80
2021/03/25 07:16:11;;;;;;;80.53;49.67;;;8.60;84.40;;;;;;4996441;28;20026;-80
2021/03/25 07:18:58;;;;;;;84.07;50.00;;;8.70;84.60;;;;;;5012289;28;20099;-79
2021/03/25 07:21:35;;;;;;;80.43;48.40;;;8.70;84.60;;;;;;4995980;28;20041;-79
2021/03/25 07:24:05;;;;;;;79.17;49.10;;;8.70;84.70;;;;;;4996284;28;20022;-80
2021/03/25 07:26:40;;;;;;;84.43;49.10;;;8.70;84.80;;;;;;5019736;28;20078;-82
2021/03/25 07:29:12;;;;;;;88.03;50.33;;;8.70;84.90;;;;;;5032537;28;20021;-86
2021/03/25 07:31:51;;;;;;;88.87;52.10;;;8.70;85.00;;;;;;5016010;28;20033;-86
2021/03/25 07:34:28;;;;;;;87.50;49.73;;;8.70;85.40;;;;;;5032122;28;20440;-86
2021/03/25 07:36:55;;;;;;;80.43;47.23;;;8.70;85.60;;;;;;5016263;28;20025;-85
2021/03/25 07:39:27;;;;;;;92.43;53.00;;;8.70;85.70;;;;;;5016159;28;20203;-81
2021/03/25 07:41:56;;;;;;;88.40;52.00;;;8.70;86.30;;;;;;5015247;28;20458;-84
2021/03/25 07:44:30;;;;;;;92.73;51.73;;;8.70;86.50;;;;;;5015293;28;20033;-84
2021/03/25 07:47:01;;;;;;;84.40;49.63;;;8.80;86.60;;;;;;5032398;28;20037;-85
2021/03/25 07:49:31;;;;;;;77.43;46.63;;;8.80;86.50;;;;;;5033158;28;20049;-85
2021/03/25 07:51:58;;;;;;;88.00;51.20;;;8.80;86.30;;;;;;5015455;28;20163;-84
2021/03/25 07:54:24;;;;;;;90.63;52.07;;;8.90;86.50;;;;;;5031686;28;20543;-85
2021/03/25 07:56:52;;;;;;;92.50;51.50;;;8.90;86.50;;;;;;5014131;28;20061;-84
2021/03/25 07:59:28;;;;;;;87.27;49.97;;;8.90;87.00;;;;;;5028471;28;20036;-84
2021/03/25 08:01:54;;;;;;;75.60;48.10;;;9.00;86.70;;;;;;5029079;28;20025;-83
2021/03/25 08:04:28;;;;;;;87.60;50.77;;;9.10;86.80;;;;;;5032742;28;20509;-81
2021/03/25 08:07:07;;;;;;;75.03;47.15;;;9.30;87.00;;;;;;5032610;28;20048;-83
2021/03/25 08:09:57;;;;;;;80.00;46.83;;;9.40;86.90;;;;;;5033022;28;20022;-83
2021/03/25 08:12:32;;;;;;;82.90;47.07;;;9.60;86.80;;;;;;5031894;28;20026;-81
2021/03/25 08:15:06;;;;;;;77.83;46.77;;;9.70;86.50;;;;;;5014550;28;20022;-82
2021/03/25 08:17:44;;;;;;;75.47;44.67;;;9.70;86.20;;;;;;5027343;28;20025;-82
2021/03/25 08:20:32;;;;;;;71.50;45.07;;;9.80;86.20;;;;;;5026793;28;20075;-83
2021/03/25 08:23:33;;;;;;;79.13;46.50;;;9.90;86.20;;;;;;5028693;28;20018;-83
2021/03/25 08:26:18;;;;;;;71.07;42.13;;;10.00;86.00;;;;;;5028384;28;20041;-82
2021/03/25 08:28:56;;;;;;;71.17;43.20;;;10.10;86.00;;;;;;5013047;28;20041;-83
2021/03/25 08:31:39;;;;;;;67.50;40.60;;;10.10;85.80;;;;;;5029245;28;20060;-83
2021/03/25 08:34:23;;;;;;;68.93;42.63;;;10.40;86.00;;;;;;5015142;28;20029;-83
2021/03/25 08:37:11;;;;;;;71.78;42.28;;;10.40;85.80;;;;;;5014884;28;20052;-84
2021/03/25 08:39:53;;;;;;;74.57;43.23;;;10.60;85.60;;;;;;5014735;28;20032;-86
2021/03/25 08:42:31;;;;;;;69.63;42.53;;;10.70;85.40;;;;;;5015806;28;20021;-81
2021/03/25 08:45:06;;;;;;;66.13;43.13;;;10.70;85.10;;;;;;5032619;28;20061;-81
2021/03/25 08:48:06;;;;;;;67.97;44.37;;;10.80;84.70;;;;;;5014217;28;20404;-83
2021/03/25 08:50:43;;;;;;;64.90;40.23;;;10.90;84.50;;;;;;4994528;28;20041;-81
2021/03/25 08:53:29;;;;;;;65.40;39.47;;;11.00;84.30;;;;;;5014808;28;20025;-82
2021/03/25 08:55:58;;;;;;;66.33;40.80;;;11.00;84.20;;;;;;5032619;28;20053;-83
2021/03/25 08:58:33;;;;;;;68.60;40.23;;;11.10;84.10;;;;;;5011488;28;20808;-80
2021/03/25 09:01:03;;;;;;;74.23;41.90;;;11.20;84.00;;;;;;5013199;28;20030;-79
2021/03/25 09:03:42;;;;;;;64.47;39.83;;;11.30;84.00;;;;;;5031564;28;20470;-80
2021/03/25 09:06:14;;;;;;;66.67;37.63;;;11.40;84.00;;;;;;5014095;28;20029;-80
2021/03/25 09:08:41;;;;;;;66.03;40.30;;;11.50;83.80;;;;;;5014638;28;20474;-80
2021/03/25 09:11:10;;;;;;;63.23;39.67;;;11.70;83.50;;;;;;5014539;28;20071;-80
2021/03/25 09:13:44;;;;;;;60.60;38.53;;;11.80;83.10;;;;;;5032157;28;20033;-80
2021/03/25 09:16:33;;;;;;;60.55;38.88;;;12.00;82.90;;;;;;5032371;28;20109;-80
2021/03/25 09:19:01;;;;;;;56.47;35.35;;;12.00;82.90;;;;;;5032349;28;20108;-80
2021/03/25 09:21:29;;;;;;;54.85;34.88;;;12.20;82.40;;;;;;5014600;28;20053;-80
2021/03/25 09:24:05;;;;;;;51.90;33.33;;;12.30;82.20;;;;;;5032250;28;20080;-80
2021/03/25 09:26:31;;;;;;;55.55;35.50;;;12.50;81.80;;;;;;5014386;28;20033;-80
2021/03/25 09:28:59;;;;;;;53.42;34.60;;;12.70;80.70;;;;;;5032069;28;20075;-79
2021/03/25 09:31:37;;;;;;;54.08;32.55;;;12.70;79.80;;;;;;5013985;28;20040;-80
2021/03/25 09:34:12;;;;;;;52.60;33.40;;;12.80;79.50;;;;;;5014105;28;20030;-79
2021/03/25 09:36:43;;;;;;;46.13;31.52;;;12.90;79.20;;;;;;5034925;28;20028;-79
2021/03/25 09:39:09;;;;;;;50.33;31.60;;;13.00;78.90;;;;;;5033049;28;20029;-80
2021/03/25 09:41:35;;;;;;;51.03;32.55;;;13.10;78.60;;;;;;5011743;28;20520;-79
2021/03/25 09:44:14;;;;;;;51.67;31.63;;;13.30;78.40;;;;;;5016920;28;20148;-80
2021/03/25 09:46:58;;;;;;;46.97;33.25;;;13.50;78.40;;;;;;5017411;28;20065;-79
2021/03/25 09:49:46;;;;;;;44.30;29.73;;;13.70;76.40;;;;;;5018364;28;20121;-80
2021/03/25 09:52:35;;;;;;;52.88;29.67;;;13.70;75.70;;;;;;5016519;28;20033;-80
2021/03/25 09:55:01;;;;;;;49.65;30.05;;;13.70;74.60;;;;;;5015087;28;20459;-81
2021/03/25 09:57:30;;;;;;;41.88;29.23;;;13.70;74.70;;;;;;5034580;28;20046;-80
2021/03/25 10:00:01;;;;;;;46.78;30.23;;;13.80;74.80;;;;;;5014821;28;20033;-80
2021/03/25 10:02:44;;;;;;;39.90;27.52;;;13.80;74.90;;;;;;5031066;28;20385;-84
2021/03/25 10:05:21;;;;;;;41.92;26.83;;;14.00;74.50;;;;;;5017204;28;20025;-84
2021/03/25 10:07:49;;;;;;;41.55;28.33;;;14.10;74.30;;;;;;5017213;28;20124;-84
2021/03/25 10:10:21;;;;;;;46.20;26.40;;;14.20;74.60;;;;;;5017406;28;20036;-83
2021/03/25 10:12:49;;;;;;;37.80;25.75;;;14.20;73.60;;;;;;5014531;28;20510;-84
2021/03/25 10:15:42;;;;;;;38.22;25.27;;;14.40;73.20;;;;;;5031039;28;20032;-83
2021/03/25 10:18:15;;;;;;;38.05;23.73;;;14.60;71.60;;;;;;5017174;28;20036;-84
2021/03/25 10:20:55;;;;;;;37.92;24.00;;;14.80;71.70;;;;;;5034809;28;20037;-85
2021/03/25 10:23:25;;;;;;;39.72;24.70;;;14.90;71.20;;;;;;5016989;28;20033;-83
2021/03/25 10:25:55;;;;;;;36.00;24.20;;;14.90;70.10;;;;;;5016573;28;20082;-81
2021/03/25 10:28:27;;;;;;;37.35;24.77;;;14.90;70.20;;;;;;5014142;28;20486;-79
2021/03/25 10:31:02;;;;;;;36.90;26.10;;;14.90;69.80;;;;;;5015052;28;20021;-80
2021/03/25 10:33:29;;;;;;;40.97;25.05;;;14.90;69.60;;;;;;5017118;28;20053;-82
2021/03/25 10:36:02;;;;;;;41.70;25.55;;;14.90;69.60;;;;;;5017001;28;20401;-82
2021/03/25 10:38:40;;;;;;;38.85;24.00;;;15.00;69.70;;;;;;5015636;28;20172;-79
2021/03/25 10:41:06;;;;;;;36.42;23.08;;;15.20;69.70;;;;;;5031165;28;20036;-77
2021/03/25 10:43:34;;;;;;;39.15;25.65;;;15.50;69.00;;;;;;5026774;28;20034;-78
2021/03/25 10:46:05;;;;;;;35.22;22.23;;;15.80;68.50;;;;;;5015935;28;20382;-78
2021/03/25 10:48:41;;;;;;;31.60;20.35;;;16.00;68.00;;;;;;5033127;28;20037;-78
2021/03/25 10:51:16;;;;;;;31.27;22.40;;;16.00;67.20;;;;;;5033781;28;20057;-77
2021/03/25 10:54:10;;;;;;;33.25;21.85;;;16.10;66.80;;;;;;5016150;28;20026;-78
2021/03/25 10:56:38;;;;;;;31.70;22.05;;;16.20;66.60;;;;;;5007045;28;20045;-78
2021/03/25 10:59:18;;;;;;;36.83;24.00;;;16.50;66.40;;;;;;5032686;28;20033;-81
2021/03/25 11:01:50;;;;;;;36.65;23.08;;;16.50;65.30;;;;;;5033996;28;20026;-82
2021/03/25 11:04:22;;;;;;;33.47;22.90;;;16.80;65.40;;;;;;5016294;28;20033;-83
2021/03/25 11:06:49;;;;;;;33.53;21.58;;;17.00;64.50;;;;;;5016045;28;20039;-84
2021/03/25 11:09:26;;;;;;;31.63;20.90;;;17.00;64.30;;;;;;5014905;28;20026;-81
2021/03/25 11:11:58;;;;;;;33.17;23.42;;;17.00;63.40;;;;;;5015843;28;20076;-82
2021/03/25 11:14:36;;;;;;;30.50;21.50;;;16.80;62.90;;;;;;5016009;28;20052;-83
2021/03/25 11:17:33;;;;;;;30.60;22.75;;;16.50;62.80;;;;;;5014363;28;20018;-83
2021/03/25 11:20:03;;;;;;;33.88;23.50;;;16.10;63.80;;;;;;5018458;28;20120;-82
2021/03/25 11:22:33;;;;;;;32.30;22.23;;;15.90;64.20;;;;;;5021073;28;20025;-82
2021/03/25 11:25:01;;;;;;;30.23;21.58;;;15.60;65.20;;;;;;5032131;28;20044;-82
2021/03/25 11:27:28;;;;;;;33.42;22.60;;;15.40;67.10;;;;;;5030258;28;20033;-82
2021/03/25 11:30:07;;;;;;;31.75;21.45;;;15.20;67.00;;;;;;5013037;28;20422;-81
2021/03/25 11:32:39;;;;;;;30.17;21.80;;;15.00;68.30;;;;;;5015552;28;20091;-85
2021/03/25 11:35:22;;;;;;;31.30;22.52;;;14.90;68.80;;;;;;5016161;28;20025;-88
2021/03/25 11:37:49;;;;;;;31.05;21.75;;;14.70;69.20;;;;;;5018927;28;20475;-83
2021/03/25 11:40:26;;;;;;;27.33;20.63;;;14.70;70.10;;;;;;5016761;28;20029;-85
2021/03/25 11:43:11;;;;;;;29.95;20.02;;;14.50;70.30;;;;;;5015991;28;20375;-85
2021/03/25 11:45:44;;;;;;;26.83;17.58;;;14.50;70.70;;;;;;5015996;28;20030;-86
2021/03/25 11:48:27;;;;;;;25.45;18.08;;;14.40;70.80;;;;;;5034501;28;20037;-88
2021/03/25 11:50:55;;;;;;;21.50;14.40;;;14.40;71.10;;;;;;5015749;28;20429;-81
2021/03/25 11:53:40;;;;;;;23.33;13.10;;;14.50;70.90;;;;;;5032704;28;20044;-82
2021/03/25 11:56:20;;;;;;;20.83;12.30;;;14.50;70.40;;;;;;4996304;28;20017;-83
2021/03/25 11:58:52;;;;;;;20.58;14.13;;;14.40;70.30;;;;;;4995633;28;20041;-83
2021/03/25 12:01:36;;;;;;;21.98;13.98;;;14.30;70.60;;;;;;4995655;28;20153;-80
2021/03/25 12:04:04;;;;;;;26.17;17.40;;;14.20;71.50;;;;;;5011923;28;20104;-80
2021/03/25 12:06:36;;;;;;;29.20;18.27;;;14.10;72.30;;;;;;5011945;28;20018;-79
2021/03/25 12:09:16;;;;;;;26.50;16.90;;;14.10;72.70;;;;;;5013172;28;20029;-84
2021/03/25 12:11:50;;;;;;;23.20;15.02;;;14.20;72.70;;;;;;5012237;28;20025;-83
2021/03/25 12:14:18;;;;;;;21.52;14.88;;;14.30;72.60;;;;;;5013489;28;20034;-84
2021/03/25 12:16:44;;;;;;;23.75;14.70;;;14.40;72.40;;;;;;4979081;28;20029;-83
2021/03/25 12:19:11;;;;;;;21.08;13.90;;;14.50;71.80;;;;;;4997505;28;20091;-85
2021/03/25 12:21:41;;;;;;;18.70;13.48;;;14.50;71.30;;;;;;4998191;28;20044;-85
2021/03/25 12:24:08;;;;;;;21.75;14.73;;;14.50;71.30;;;;;;5013885;28;20021;-84
2021/03/25 12:26:34;;;;;;;23.00;14.88;;;14.30;71.20;;;;;;4998958;28;20037;-84
2021/03/25 12:29:03;;;;;;;24.50;15.15;;;14.10;71.60;;;;;;4998876;28;20029;-85
2021/03/25 12:31:32;;;;;;;23.67;15.35;;;13.90;72.10;;;;;;5015361;28;20521;-84
2021/03/25 12:33:58;;;;;;;24.77;17.65;;;13.80;72.70;;;;;;5031062;28;20017;-83
2021/03/25 12:36:24;;;;;;;26.33;17.25;;;13.50;73.70;;;;;;5000158;28;20068;-84
2021/03/25 12:38:50;;;;;;;25.75;17.65;;;13.30;74.80;;;;;;5012699;28;20029;-85
2021/03/25 12:41:41;;;;;;;22.58;15.52;;;13.10;76.00;;;;;;4995330;28;20022;-83
2021/03/25 12:44:08;;;;;;;22.65;13.15;;;13.00;77.10;;;;;;4995092;28;20034;-83
2021/03/25 12:46:34;;;;;;;23.92;14.63;;;12.80;78.60;;;;;;4978539;28;20036;-83
2021/03/25 12:49:00;;;;;;;25.88;15.60;;;12.60;79.40;;;;;;5002028;28;20052;-86
2021/03/25 12:51:26;;;;;;;26.48;16.80;;;12.50;80.20;;;;;;4998374;28;20363;-82
2021/03/25 12:53:52;;;;;;;31.20;18.13;;;12.40;81.50;;;;;;5031885;28;20370;-83
2021/03/25 12:56:31;;;;;;;29.77;18.17;;;12.30;81.90;;;;;;5031924;28;20036;-82
2021/03/25 12:59:01;;;;;;;28.40;17.40;;;12.20;82.30;;;;;;5032655;28;20037;-83
2021/03/25 13:01:28;;;;;;;26.30;16.03;;;12.10;83.20;;;;;;5015181;28;20136;-83
2021/03/25 13:03:54;;;;;;;26.47;17.40;;;12.00;83.10;;;;;;5032391;28;20025;-83
2021/03/25 13:06:21;;;;;;;26.63;16.10;;;12.00;84.60;;;;;;5014968;28;20478;-84
2021/03/25 13:08:47;;;;;;;27.00;16.77;;;11.90;84.20;;;;;;4997811;28;20041;-83
2021/03/25 13:11:20;;;;;;;27.07;15.73;;;11.80;84.40;;;;;;4992070;28;20025;-81
2021/03/25 13:13:46;;;;;;;26.43;17.40;;;11.90;85.10;;;;;;5016327;28;20064;-83